createdAt,value
2023-02-27T00:01:55.357Z,101558.03
2023-02-27T00:03:57.568Z,101552.28
2023-02-27T00:05:59.273Z,101537.78
2023-02-27T00:08:00.714Z,101555.69
2023-02-27T00:10:02.350Z,101559.53
2023-02-27T00:12:04.010Z,101556.78
2023-02-27T00:14:05.772Z,101556.78
2023-02-27T00:16:07.946Z,101552.75
2023-02-27T00:18:09.474Z,101558.28
2023-02-27T00:20:13.588Z,101557.00
2023-02-27T00:22:14.983Z,101549.06
2023-02-27T00:24:16.491Z,101556.84
2023-02-27T00:26:17.883Z,101573.63
2023-02-27T00:28:19.305Z,101568.94
2023-02-27T00:30:20.978Z,101566.66
2023-02-27T00:32:22.425Z,101566.69
2023-02-27T00:34:24.010Z,101569.44
2023-02-27T00:36:25.664Z,101553.28
2023-02-27T00:38:27.622Z,101543.88
2023-02-27T00:40:29.074Z,101542.97
2023-02-27T00:42:30.646Z,101568.56
2023-02-27T00:44:32.085Z,101567.94
2023-02-27T00:46:33.568Z,101556.00
2023-02-27T00:48:34.973Z,101566.69
2023-02-27T00:50:36.692Z,101573.56
2023-02-27T00:52:38.989Z,101566.97
2023-02-27T00:54:40.568Z,101569.78
2023-02-27T00:56:42.025Z,101567.50
2023-02-27T00:58:43.513Z,101571.34
2023-02-27T01:00:45.191Z,101567.34
2023-02-27T01:02:46.698Z,101558.63
2023-02-27T01:04:48.344Z,101571.13
2023-02-27T01:06:49.973Z,101555.22
2023-02-27T01:08:51.432Z,101557.91
2023-02-27T01:10:55.282Z,101552.34
2023-02-27T01:12:56.777Z,101552.75
2023-02-27T01:14:58.295Z,101549.75
2023-02-27T01:16:59.934Z,101562.97
2023-02-27T01:19:01.456Z,101574.59
2023-02-27T01:21:02.900Z,101569.59
2023-02-27T01:23:04.480Z,101544.13
2023-02-27T01:25:06.463Z,101562.94
2023-02-27T01:27:08.228Z,101559.81
2023-02-27T01:29:09.743Z,101541.50
2023-02-27T01:31:11.604Z,101547.44
2023-02-27T01:33:13.055Z,101567.13
2023-02-27T01:35:14.540Z,101573.59
2023-02-27T01:37:16.197Z,101572.56
2023-02-27T01:39:17.784Z,101570.56
2023-02-27T01:41:19.306Z,101552.50
2023-02-27T01:43:22.386Z,101574.81
2023-02-27T01:45:33.674Z,101574.88
2023-02-27T01:47:36.800Z,101557.78
2023-02-27T01:49:38.408Z,101578.22
2023-02-27T01:51:53.864Z,101581.88
2023-02-27T01:53:56.285Z,101580.88
2023-02-27T01:56:05.032Z,101587.47
2023-02-27T01:58:09.760Z,101595.38
2023-02-27T02:00:12.572Z,101595.06
2023-02-27T02:02:24.907Z,101597.94
2023-02-27T02:04:29.681Z,101599.31
2023-02-27T02:06:35.580Z,101575.34
2023-02-27T02:08:41.793Z,101601.72
2023-02-27T02:10:44.082Z,101603.03
2023-02-27T02:12:47.263Z,101610.84
2023-02-27T02:14:48.846Z,101605.19
2023-02-27T02:16:58.989Z,101611.31
2023-02-27T02:19:21.983Z,101613.72
2023-02-27T02:21:51.461Z,101618.84
2023-02-27T02:24:01.635Z,101617.25
2023-02-27T02:26:05.973Z,101613.59
2023-02-27T02:28:29.218Z,101614.97
2023-02-27T02:31:01.771Z,101616.66
2023-02-27T02:33:21.787Z,101619.09
2023-02-27T02:35:41.609Z,101627.19
2023-02-27T02:38:11.902Z,101608.81
2023-02-27T02:40:23.545Z,101624.16
2023-02-27T02:42:34.131Z,101621.69
2023-02-27T02:44:40.275Z,101609.44
2023-02-27T02:46:56.260Z,101624.56
2023-02-27T02:49:10.497Z,101629.00
2023-02-27T02:51:34.067Z,101625.75
2023-02-27T02:53:52.965Z,101626.44
2023-02-27T02:56:17.715Z,101636.22
2023-02-27T02:58:22.028Z,101636.47
2023-02-27T03:00:30.397Z,101641.34
2023-02-27T03:02:38.709Z,101643.50
2023-02-27T03:04:46.585Z,101652.34
2023-02-27T03:06:55.916Z,101632.66
2023-02-27T03:09:10.556Z,101650.69
2023-02-27T03:11:12.181Z,101653.19
2023-02-27T03:13:27.284Z,101656.72
2023-02-27T03:15:40.314Z,101641.00
2023-02-27T03:17:56.314Z,101658.19
2023-02-27T03:20:02.969Z,101655.50
2023-02-27T03:22:19.655Z,101658.88
2023-02-27T03:24:26.241Z,101630.22
2023-02-27T03:26:37.580Z,101644.41
2023-02-27T03:28:44.137Z,101666.03
2023-02-27T03:30:53.397Z,101671.84
2023-02-27T03:32:58.459Z,101665.03
2023-02-27T03:35:00.261Z,101645.38
2023-02-27T03:37:12.985Z,101679.84
2023-02-27T03:39:37.604Z,101681.38
2023-02-27T03:41:49.917Z,101686.84
2023-02-27T03:44:05.424Z,101680.06
2023-02-27T03:46:17.418Z,101686.59
2023-02-27T03:48:18.953Z,101692.06
2023-02-27T03:50:20.570Z,101689.22
2023-02-27T03:52:24.203Z,101701.75
2023-02-27T03:54:36.235Z,101701.13
2023-02-27T03:56:57.796Z,101703.31
2023-02-27T03:58:59.347Z,101702.03
2023-02-27T04:01:00.910Z,101675.56
2023-02-27T04:03:02.951Z,101675.81
2023-02-27T04:05:04.550Z,101708.50
2023-02-27T04:07:20.365Z,101708.13
2023-02-27T04:09:55.272Z,101711.50
2023-02-27T04:12:18.974Z,101714.97
2023-02-27T04:14:26.535Z,101722.00
2023-02-27T04:16:44.711Z,101719.16
2023-02-27T04:19:31.630Z,101720.06
2023-02-27T04:22:05.320Z,101710.53
2023-02-27T04:24:09.657Z,101714.59
2023-02-27T04:26:23.946Z,101718.59
2023-02-27T04:28:39.098Z,101698.97
2023-02-27T04:30:48.984Z,101715.19
2023-02-27T04:33:01.410Z,101715.94
2023-02-27T04:35:11.442Z,101727.34
2023-02-27T04:37:35.464Z,101729.59
2023-02-27T04:39:47.823Z,101733.84
2023-02-27T04:42:00.907Z,101710.47
2023-02-27T04:44:05.210Z,101740.66
2023-02-27T04:46:10.913Z,101742.97
2023-02-27T04:48:34.469Z,101695.50
2023-02-27T04:50:46.905Z,101750.75
2023-02-27T04:52:55.794Z,101754.22
2023-02-27T04:55:04.968Z,101734.47
2023-02-27T04:57:10.712Z,101760.88
2023-02-27T04:59:27.027Z,101760.72
2023-02-27T05:01:42.048Z,101761.66
2023-02-27T05:03:48.572Z,101747.88
2023-02-27T05:05:53.687Z,101769.81
2023-02-27T05:08:01.675Z,101767.81
2023-02-27T05:10:08.007Z,101758.09
2023-02-27T05:12:19.689Z,101768.75
2023-02-27T05:14:28.916Z,101775.31
2023-02-27T05:16:41.290Z,101775.78
2023-02-27T05:18:43.244Z,101751.78
2023-02-27T05:21:06.766Z,101773.28
2023-02-27T05:23:08.116Z,101772.81
2023-02-27T05:25:15.179Z,101776.13
2023-02-27T05:27:32.230Z,101783.13
2023-02-27T05:29:47.904Z,101776.75
2023-02-27T05:31:56.684Z,101784.94
2023-02-27T05:34:25.854Z,101777.72
2023-02-27T05:36:36.190Z,101781.94
2023-02-27T05:38:42.014Z,101794.34
2023-02-27T05:40:52.347Z,101794.00
2023-02-27T05:43:04.024Z,101781.09
2023-02-27T05:45:13.116Z,101797.38
2023-02-27T05:47:20.170Z,101797.28
2023-02-27T05:49:26.788Z,101806.13
2023-02-27T05:51:33.112Z,101802.84
2023-02-27T05:53:40.936Z,101806.88
2023-02-27T05:55:54.359Z,101807.13
2023-02-27T05:58:01.618Z,101818.28
2023-02-27T06:00:15.497Z,101826.91
2023-02-27T06:02:17.176Z,101835.44
2023-02-27T06:04:18.779Z,101835.50
2023-02-27T06:06:20.806Z,101832.53
2023-02-27T06:08:22.825Z,101832.25
2023-02-27T06:10:24.325Z,101835.88
2023-02-27T06:12:26.054Z,101836.03
2023-02-27T06:14:28.108Z,101828.75
2023-02-27T06:16:29.931Z,101828.72
2023-02-27T06:18:31.529Z,101836.09
2023-02-27T06:20:32.961Z,101846.34
2023-02-27T06:22:34.588Z,101831.38
2023-02-27T06:24:36.179Z,101847.41
2023-02-27T06:26:37.566Z,101832.53
2023-02-27T06:28:39.111Z,101841.13
2023-02-27T06:30:40.790Z,101855.13
2023-02-27T06:32:42.212Z,101835.09
2023-02-27T06:34:43.890Z,101837.13
2023-02-27T06:36:45.570Z,101849.66
2023-02-27T06:38:46.962Z,101858.81
2023-02-27T06:40:48.371Z,101855.78
2023-02-27T06:42:50.012Z,101862.50
2023-02-27T06:44:51.425Z,101861.69
2023-02-27T06:46:52.964Z,101844.59
2023-02-27T06:48:54.497Z,101867.63
2023-02-27T06:50:56.771Z,101872.09
2023-02-27T06:52:58.355Z,101850.69
2023-02-27T06:54:59.937Z,101853.22
2023-02-27T06:57:01.331Z,101875.78
2023-02-27T06:59:02.939Z,101877.53
2023-02-27T07:01:04.632Z,101873.19
2023-02-27T07:03:06.152Z,101880.38
2023-02-27T07:05:08.520Z,101880.97
2023-02-27T07:07:35.149Z,101879.63
2023-02-27T07:09:32.056Z,101881.50
2023-02-27T07:11:33.570Z,101891.22
2023-02-27T07:13:35.333Z,101885.78
2023-02-27T07:15:36.732Z,101893.41
2023-02-27T07:17:38.302Z,101892.97
2023-02-27T07:19:39.939Z,101899.41
2023-02-27T07:21:41.349Z,101898.75
2023-02-27T07:23:43.154Z,101902.38
2023-02-27T07:25:47.389Z,101899.44
2023-02-27T07:27:48.844Z,101903.50
2023-02-27T07:29:50.344Z,101907.31
2023-02-27T07:31:51.852Z,101908.72
2023-02-27T07:33:53.235Z,101907.94
2023-02-27T07:35:54.765Z,101908.97
2023-02-27T07:37:56.291Z,101910.09
2023-02-27T07:39:57.692Z,101911.38
2023-02-27T07:41:59.162Z,101906.75
2023-02-27T07:44:00.756Z,101918.38
2023-02-27T07:46:02.197Z,101893.78
2023-02-27T07:48:03.878Z,101916.13
2023-02-27T07:50:06.019Z,101916.47
2023-02-27T07:52:07.418Z,101922.47
2023-02-27T07:54:08.938Z,101908.34
2023-02-27T07:56:10.582Z,101921.28
2023-02-27T07:58:12.013Z,101931.75
2023-02-27T08:00:14.036Z,101921.78
2023-02-27T08:02:15.792Z,101915.91
2023-02-27T08:04:17.242Z,101940.28
2023-02-27T08:06:18.836Z,101932.09
2023-02-27T08:08:20.329Z,101945.50
2023-02-27T08:10:21.873Z,101926.38
2023-02-27T08:12:23.517Z,101951.00
2023-02-27T08:14:25.335Z,101940.56
2023-02-27T08:16:27.195Z,101939.09
2023-02-27T08:18:28.842Z,101945.09
2023-02-27T08:20:30.410Z,101917.41
2023-02-27T08:22:31.842Z,101952.66
2023-02-27T08:24:33.515Z,101947.94
2023-02-27T08:26:35.150Z,101940.56
2023-02-27T08:28:36.614Z,101958.38
2023-02-27T08:30:38.193Z,101938.81
2023-02-27T08:32:40.168Z,101949.50
2023-02-27T08:34:41.762Z,101958.94
2023-02-27T08:36:43.507Z,101937.88
2023-02-27T08:38:45.048Z,101953.97
2023-02-27T08:40:46.757Z,101965.34
2023-02-27T08:42:48.259Z,101939.28
2023-02-27T08:44:49.726Z,101964.53
2023-02-27T08:46:51.153Z,101961.13
2023-02-27T08:48:52.637Z,101960.72
2023-02-27T08:50:55.671Z,101964.16
2023-02-27T08:52:58.152Z,101949.94
2023-02-27T08:54:59.661Z,101957.16
2023-02-27T08:57:01.141Z,101959.69
2023-02-27T08:59:02.587Z,101967.84
2023-02-27T09:01:04.182Z,101973.63
2023-02-27T09:03:05.896Z,101971.56
2023-02-27T09:05:07.796Z,101975.38
2023-02-27T09:07:09.417Z,101977.06
2023-02-27T09:09:11.170Z,101971.47
2023-02-27T09:11:12.582Z,101974.88
2023-02-27T09:13:14.253Z,101971.25
2023-02-27T09:15:16.396Z,101974.72
2023-02-27T09:17:17.823Z,101957.72
2023-02-27T09:19:19.403Z,101975.56
2023-02-27T09:21:21.235Z,101975.28
2023-02-27T09:23:23.932Z,101941.19
2023-02-27T09:25:26.305Z,101987.41
2023-02-27T09:27:28.370Z,101966.94
2023-02-27T09:29:29.831Z,101987.69
2023-02-27T09:31:33.412Z,101991.56
2023-02-27T09:33:37.073Z,101942.47
2023-02-27T09:35:38.501Z,101998.34
2023-02-27T09:37:40.037Z,101995.00
2023-02-27T09:39:43.991Z,102005.28
2023-02-27T09:42:07.437Z,102008.81
2023-02-27T09:44:30.656Z,102007.97
2023-02-27T09:46:38.251Z,102012.56
2023-02-27T09:48:47.411Z,102010.31
2023-02-27T09:50:50.705Z,102014.44
2023-02-27T09:52:52.335Z,101999.41
2023-02-27T09:54:53.839Z,102003.13
2023-02-27T09:57:00.625Z,102019.91
2023-02-27T09:59:19.581Z,102024.88
2023-02-27T10:01:30.702Z,102009.09
2023-02-27T10:03:57.572Z,102024.13
2023-02-27T10:06:18.387Z,102003.38
2023-02-27T10:08:35.638Z,102030.47
2023-02-27T10:11:03.571Z,102017.66
2023-02-27T10:13:29.866Z,102028.16
2023-02-27T10:15:37.114Z,102026.91
2023-02-27T10:18:07.537Z,102020.81
2023-02-27T10:20:30.902Z,102015.63
2023-02-27T10:22:38.057Z,102023.84
2023-02-27T10:24:44.753Z,102022.81
2023-02-27T10:26:46.564Z,102020.91
2023-02-27T10:28:48.144Z,102025.47
2023-02-27T10:30:53.778Z,102022.66
2023-02-27T10:33:32.468Z,102023.75
2023-02-27T10:35:37.486Z,102031.09
2023-02-27T10:37:48.007Z,102036.09
2023-02-27T10:39:56.415Z,102021.75
2023-02-27T10:42:05.441Z,102039.97
2023-02-27T10:44:06.992Z,102042.09
2023-02-27T10:46:22.034Z,102042.59
2023-02-27T10:48:23.453Z,102012.63
2023-02-27T10:50:31.055Z,102042.94
2023-02-27T10:52:32.864Z,102027.88
2023-02-27T10:54:34.508Z,102044.53
2023-02-27T10:56:35.970Z,102036.84
2023-02-27T10:58:38.004Z,102046.31
2023-02-27T11:00:53.412Z,102040.31
2023-02-27T11:02:55.062Z,102036.63
2023-02-27T11:04:59.989Z,102044.25
2023-02-27T11:07:04.684Z,102034.28
2023-02-27T11:09:17.556Z,102043.69
2023-02-27T11:11:28.567Z,102038.69
2023-02-27T11:13:36.637Z,102037.34
2023-02-27T11:15:38.552Z,102037.25
2023-02-27T11:17:40.708Z,102016.72
2023-02-27T11:19:42.113Z,102034.66
2023-02-27T11:22:00.682Z,102012.44
2023-02-27T11:24:07.152Z,102029.28
2023-02-27T11:26:22.467Z,102032.22
2023-02-27T11:28:26.831Z,102034.84
2023-02-27T11:30:29.768Z,102031.13
2023-02-27T11:32:44.267Z,102033.25
2023-02-27T11:34:51.293Z,102036.13
2023-02-27T11:36:56.389Z,102036.56
2023-02-27T11:38:57.878Z,102032.94
2023-02-27T11:41:03.321Z,102038.81
2023-02-27T11:43:16.997Z,102036.25
2023-02-27T11:46:13.296Z,102040.03
2023-02-27T11:47:46.642Z,102025.28
2023-02-27T11:50:17.176Z,102042.94
2023-02-27T11:52:29.851Z,102033.13
2023-02-27T11:54:37.135Z,102042.91
2023-02-27T11:56:43.391Z,102039.44
2023-02-27T11:58:56.379Z,102039.25
2023-02-27T12:01:06.648Z,102042.59
2023-02-27T12:03:37.428Z,102045.41
2023-02-27T12:05:49.212Z,102041.81
2023-02-27T12:07:57.636Z,102046.09
2023-02-27T12:10:03.046Z,102040.28
2023-02-27T12:12:14.152Z,102029.31
2023-02-27T12:14:27.393Z,102036.13
2023-02-27T12:16:40.414Z,102037.34
2023-02-27T12:18:54.852Z,102041.69
2023-02-27T12:21:04.259Z,102039.25
2023-02-27T12:23:18.150Z,102043.56
2023-02-27T12:25:43.671Z,102042.06
2023-02-27T12:27:53.515Z,102051.06
2023-02-27T12:30:02.046Z,102020.22
2023-02-27T12:32:22.910Z,102025.41
2023-02-27T12:34:27.759Z,102046.41
2023-02-27T12:36:29.881Z,102044.31
2023-02-27T12:38:31.646Z,102023.41
2023-02-27T12:40:58.701Z,102041.84
2023-02-27T12:43:19.078Z,102031.59
2023-02-27T12:45:46.208Z,102036.28
2023-02-27T12:48:17.040Z,102035.84
2023-02-27T12:50:20.711Z,102032.16
2023-02-27T12:52:26.916Z,102041.13
2023-02-27T12:55:04.063Z,102049.19
2023-02-27T12:57:15.309Z,102051.97
2023-02-27T12:59:35.228Z,102047.88
2023-02-27T13:01:51.263Z,102043.22
2023-02-27T13:04:04.752Z,102021.59
2023-02-27T13:06:21.290Z,102042.88
2023-02-27T13:08:32.734Z,102043.75
2023-02-27T13:10:48.101Z,102042.34
2023-02-27T13:13:18.119Z,102036.44
2023-02-27T13:15:31.013Z,102012.06
2023-02-27T13:17:49.108Z,102024.84
2023-02-27T13:20:29.121Z,102036.75
2023-02-27T13:22:48.386Z,102039.53
2023-02-27T13:24:51.664Z,102045.69
2023-02-27T13:27:07.355Z,102039.34
2023-02-27T13:29:14.333Z,102041.88
2023-02-27T13:31:27.359Z,102032.28
2023-02-27T13:33:45.476Z,102034.03
2023-02-27T13:36:00.446Z,102031.84
2023-02-27T13:38:19.727Z,102036.91
2023-02-27T13:40:41.310Z,102034.66
2023-02-27T13:42:45.774Z,102032.22
2023-02-27T13:44:47.216Z,102034.41
2023-02-27T13:46:48.776Z,102011.94
2023-02-27T13:49:28.907Z,102021.03
2023-02-27T13:51:36.980Z,102035.22
2023-02-27T13:53:38.860Z,102027.56
2023-02-27T13:55:40.522Z,102022.66
2023-02-27T13:57:42.212Z,102030.59
2023-02-27T13:59:53.088Z,102029.16
2023-02-27T14:02:01.685Z,102030.81
2023-02-27T14:04:07.360Z,102031.22
2023-02-27T14:06:11.624Z,102037.81
2023-02-27T14:08:33.833Z,102025.63
2023-02-27T14:10:37.380Z,102031.03
2023-02-27T14:12:45.705Z,102031.44
2023-02-27T14:14:49.021Z,102012.28
2023-02-27T14:16:51.430Z,102031.22
2023-02-27T14:18:52.924Z,102030.28
2023-02-27T14:20:54.554Z,102019.09
2023-02-27T14:23:14.764Z,102039.94
2023-02-27T14:25:19.121Z,102040.84
2023-02-27T14:27:30.406Z,102041.44
2023-02-27T14:29:34.914Z,102048.69
2023-02-27T14:31:40.748Z,102047.78
2023-02-27T14:33:48.511Z,102048.63
2023-02-27T14:35:58.832Z,102042.56
2023-02-27T14:38:08.142Z,102057.19
2023-02-27T14:40:29.977Z,102060.44
2023-02-27T14:42:34.803Z,102060.72
2023-02-27T14:44:45.588Z,102053.63
2023-02-27T14:46:47.227Z,102063.59
2023-02-27T14:48:53.484Z,102061.78
2023-02-27T14:50:55.172Z,102058.16
2023-02-27T14:52:56.685Z,102067.63
2023-02-27T14:55:16.807Z,102068.19
2023-02-27T14:57:22.039Z,102068.03
2023-02-27T14:59:26.192Z,102067.19
2023-02-27T15:01:33.220Z,102056.56
2023-02-27T15:03:52.090Z,102069.03
2023-02-27T15:05:57.850Z,102044.06
2023-02-27T15:07:59.417Z,102079.94
2023-02-27T15:10:05.092Z,102071.84
2023-02-27T15:12:06.807Z,102081.50
2023-02-27T15:14:08.324Z,102082.50
2023-02-27T15:16:38.242Z,102081.94
2023-02-27T15:18:40.185Z,102085.03
2023-02-27T15:20:41.627Z,102073.78
2023-02-27T15:22:43.113Z,102091.84
2023-02-27T15:24:50.287Z,102094.75
2023-02-27T15:26:56.207Z,102083.00
2023-02-27T15:28:58.207Z,102099.66
2023-02-27T15:30:59.834Z,102097.88
2023-02-27T15:33:01.806Z,102100.16
2023-02-27T15:35:25.778Z,102074.63
2023-02-27T15:37:33.251Z,102097.53
2023-02-27T15:39:35.475Z,102077.13
2023-02-27T15:41:37.935Z,102085.56
2023-02-27T15:43:40.839Z,102094.78
2023-02-27T15:45:42.894Z,102100.88
2023-02-27T15:47:44.405Z,102092.03
2023-02-27T15:49:47.291Z,102088.47
2023-02-27T15:51:59.918Z,102110.66
2023-02-27T15:54:04.466Z,102101.88
2023-02-27T15:56:11.338Z,102116.97
2023-02-27T15:58:43.947Z,102122.84
2023-02-27T16:00:46.472Z,102131.25
2023-02-27T16:02:51.381Z,102138.31
2023-02-27T16:04:53.204Z,102132.00
2023-02-27T16:07:17.793Z,102128.78
2023-02-27T16:09:24.392Z,102137.25
2023-02-27T16:11:29.817Z,102137.25
2023-02-27T16:13:40.078Z,102133.59
2023-02-27T16:15:41.576Z,102126.31
2023-02-27T16:18:02.884Z,102149.59
2023-02-27T16:20:30.313Z,102153.47
2023-02-27T16:22:31.885Z,102153.19
2023-02-27T16:24:34.021Z,102152.97
2023-02-27T16:26:36.842Z,102162.72
2023-02-27T16:28:57.149Z,102160.25
2023-02-27T16:30:58.910Z,102167.78
2023-02-27T16:33:01.545Z,102154.72
2023-02-27T16:35:07.083Z,102158.66
2023-02-27T16:37:20.420Z,102184.41
2023-02-27T16:39:24.560Z,102192.97
2023-02-27T16:41:27.427Z,102179.03
2023-02-27T16:43:28.829Z,102188.28
2023-02-27T16:45:30.376Z,102194.69
2023-02-27T16:47:31.798Z,102176.47
2023-02-27T16:49:33.706Z,102192.97
2023-02-27T16:51:35.355Z,102196.81
2023-02-27T16:53:36.864Z,102193.31
2023-02-27T16:55:40.159Z,102211.63
2023-02-27T16:57:41.809Z,102215.19
2023-02-27T16:59:43.644Z,102214.34
2023-02-27T17:01:45.070Z,102216.44
2023-02-27T17:03:47.523Z,102199.50
2023-02-27T17:05:49.110Z,102227.53
2023-02-27T17:07:50.531Z,102228.34
2023-02-27T17:09:52.032Z,102210.16
2023-02-27T17:11:54.307Z,102241.09
2023-02-27T17:13:55.711Z,102229.19
2023-02-27T17:15:57.263Z,102246.13
2023-02-27T17:17:59.155Z,102228.72
2023-02-27T17:20:00.600Z,102224.59
2023-02-27T17:22:02.151Z,102228.13
2023-02-27T17:24:03.721Z,102248.06
2023-02-27T17:26:05.122Z,102257.66
2023-02-27T17:28:06.602Z,102261.28
2023-02-27T17:30:08.934Z,102254.81
2023-02-27T17:32:10.411Z,102267.13
2023-02-27T17:34:12.196Z,102262.84
2023-02-27T17:36:13.675Z,102238.88
2023-02-27T17:38:15.124Z,102262.38
2023-02-27T17:40:17.193Z,102261.50
2023-02-27T17:42:18.807Z,102256.69
2023-02-27T17:44:20.480Z,102268.56
2023-02-27T17:46:23.880Z,102271.97
2023-02-27T17:48:25.487Z,102244.78
2023-02-27T17:50:26.952Z,102279.03
2023-02-27T17:52:28.443Z,102275.63
2023-02-27T17:54:29.933Z,102275.25
2023-02-27T17:56:31.808Z,102273.78
2023-02-27T17:58:33.975Z,102286.03
2023-02-27T18:00:35.705Z,102278.03
2023-02-27T18:02:37.125Z,102280.94
2023-02-27T18:04:38.725Z,102285.84
2023-02-27T18:06:40.444Z,102270.47
2023-02-27T18:08:41.991Z,102288.88
2023-02-27T18:10:50.779Z,102294.41
2023-02-27T18:12:52.278Z,102271.09
2023-02-27T18:14:53.758Z,102272.97
2023-02-27T18:16:55.948Z,102295.22
2023-02-27T18:18:57.392Z,102261.09
2023-02-27T18:21:00.731Z,102288.69
2023-02-27T18:23:02.254Z,102300.84
2023-02-27T18:25:03.893Z,102299.31
2023-02-27T18:27:05.295Z,102299.41
2023-02-27T18:29:09.326Z,102291.81
2023-02-27T18:31:24.126Z,102299.69
2023-02-27T18:33:25.678Z,102296.56
2023-02-27T18:35:27.939Z,102303.44
2023-02-27T18:37:29.584Z,102283.81
2023-02-27T18:39:30.991Z,102313.22
2023-02-27T18:41:33.224Z,102309.88
2023-02-27T18:43:35.741Z,102310.94
2023-02-27T18:45:37.944Z,102319.75
2023-02-27T18:47:39.556Z,102313.03
2023-02-27T18:49:41.062Z,102310.59
2023-02-27T18:51:42.937Z,102316.56
2023-02-27T18:53:47.789Z,102317.41
2023-02-27T18:55:49.259Z,102311.47
2023-02-27T18:57:50.718Z,102323.56
2023-02-27T18:59:52.361Z,102299.59
2023-02-27T19:01:54.009Z,102322.88
2023-02-27T19:03:56.357Z,102297.13
2023-02-27T19:05:58.089Z,102328.22
2023-02-27T19:07:59.573Z,102318.75
2023-02-27T19:10:00.968Z,102334.38
2023-02-27T19:12:02.667Z,102327.63
2023-02-27T19:14:06.645Z,102331.03
2023-02-27T19:16:08.095Z,102335.50
2023-02-27T19:18:09.703Z,102282.47
2023-02-27T19:20:11.668Z,102293.56
2023-02-27T19:22:13.072Z,102303.84
2023-02-27T19:24:15.105Z,102339.19
2023-02-27T19:26:16.689Z,102335.88
2023-02-27T19:28:18.074Z,102335.88
2023-02-27T19:30:19.747Z,102339.47
2023-02-27T19:32:21.242Z,102319.78
2023-02-27T19:34:22.717Z,102334.38
2023-02-27T19:36:25.868Z,102339.72
2023-02-27T19:38:27.415Z,102334.56
2023-02-27T19:40:28.809Z,102338.00
2023-02-27T19:42:30.317Z,102324.38
2023-02-27T19:44:31.824Z,102336.38
2023-02-27T19:46:34.489Z,102321.09
2023-02-27T19:48:36.407Z,102338.38
2023-02-27T19:50:39.971Z,102334.06
2023-02-27T19:52:41.336Z,102341.13
2023-02-27T19:54:42.811Z,102326.78
2023-02-27T19:56:44.535Z,102319.03
2023-02-27T19:58:46.493Z,102346.56
2023-02-27T20:00:47.997Z,102338.09
2023-02-27T20:02:49.616Z,102342.47
2023-02-27T20:04:51.033Z,102343.47
2023-02-27T20:06:52.686Z,102361.44
2023-02-27T20:08:55.112Z,102339.91
2023-02-27T20:10:58.695Z,102357.94
2023-02-27T20:13:00.209Z,102358.94
2023-02-27T20:15:01.792Z,102361.63
2023-02-27T20:17:03.223Z,102353.94
2023-02-27T20:19:06.814Z,102355.69
2023-02-27T20:21:09.497Z,102366.13
2023-02-27T20:23:10.909Z,102361.06
2023-02-27T20:25:12.832Z,102356.81
2023-02-27T20:27:14.398Z,102343.97
2023-02-27T20:29:19.114Z,102367.22
2023-02-27T20:31:23.225Z,102369.84
2023-02-27T20:33:24.789Z,102370.03
2023-02-27T20:35:26.276Z,102372.78
2023-02-27T20:37:27.762Z,102382.41
2023-02-27T20:39:29.355Z,102361.13
2023-02-27T20:41:31.320Z,102379.91
2023-02-27T20:43:33.558Z,102385.09
2023-02-27T20:45:38.782Z,102381.66
2023-02-27T20:47:40.206Z,102368.84
2023-02-27T20:49:41.692Z,102381.75
2023-02-27T20:51:43.828Z,102363.00
2023-02-27T20:53:47.408Z,102379.31
2023-02-27T20:55:49.369Z,102388.00
2023-02-27T20:57:50.923Z,102387.34
2023-02-27T20:59:52.335Z,102387.34
2023-02-27T21:01:54.817Z,102387.34
2023-02-27T21:03:57.379Z,102392.50
2023-02-27T21:05:59.787Z,102387.28
2023-02-27T21:08:03.609Z,102395.06
2023-02-27T21:10:05.396Z,102387.34
2023-02-27T21:12:07.523Z,102383.19
2023-02-27T21:14:11.470Z,102396.09
2023-02-27T21:16:14.985Z,102391.03
2023-02-27T21:18:16.460Z,102398.13
2023-02-27T21:20:18.043Z,102388.75
2023-02-27T21:22:19.449Z,102399.00
2023-02-27T21:24:21.338Z,102385.41
2023-02-27T21:26:26.398Z,102400.88
2023-02-27T21:28:27.793Z,102387.19
2023-02-27T21:30:29.849Z,102400.13
2023-02-27T21:32:31.526Z,102400.09
2023-02-27T21:34:32.970Z,102390.66
2023-02-27T21:36:37.514Z,102404.31
2023-02-27T21:38:39.633Z,102413.78
2023-02-27T21:40:41.031Z,102410.50
2023-02-27T21:42:42.891Z,102420.09
2023-02-27T21:44:44.371Z,102421.09
2023-02-27T21:46:45.960Z,102419.31
2023-02-27T21:48:47.423Z,102409.28
2023-02-27T21:50:48.896Z,102425.56
2023-02-27T21:52:50.290Z,102411.03
2023-02-27T21:54:51.802Z,102412.75
2023-02-27T21:56:53.242Z,102424.75
2023-02-27T21:58:55.029Z,102428.13
2023-02-27T22:00:56.523Z,102435.03
2023-02-27T22:02:58.096Z,102426.41
2023-02-27T22:04:59.557Z,102369.97
2023-02-27T22:07:01.045Z,102418.09
2023-02-27T22:09:05.458Z,102422.31
2023-02-27T22:11:07.263Z,102424.09
2023-02-27T22:13:08.962Z,102414.81
2023-02-27T22:15:11.003Z,102417.56
2023-02-27T22:17:12.435Z,102427.88
2023-02-27T22:19:17.126Z,102430.34
2023-02-27T22:21:24.322Z,102434.56
2023-02-27T22:23:26.323Z,102433.78
2023-02-27T22:25:28.028Z,102413.94
2023-02-27T22:27:29.544Z,102434.66
2023-02-27T22:29:30.930Z,102425.16
2023-02-27T22:31:35.370Z,102427.81
2023-02-27T22:33:38.162Z,102431.22
2023-02-27T22:35:39.556Z,102434.72
2023-02-27T22:37:41.042Z,102429.56
2023-02-27T22:39:42.742Z,102408.00
2023-02-27T22:41:44.237Z,102400.38
2023-02-27T22:43:45.832Z,102421.66
2023-02-27T22:45:47.871Z,102401.03
2023-02-27T22:47:49.349Z,102423.66
2023-02-27T22:49:51.394Z,102414.34
2023-02-27T22:51:53.221Z,102423.75
2023-02-27T22:53:56.644Z,102424.59
2023-02-27T22:55:58.040Z,102402.31
2023-02-27T22:57:59.690Z,102422.00
2023-02-27T23:00:01.109Z,102429.00
2023-02-27T23:02:02.590Z,102433.19
2023-02-27T23:04:08.383Z,102435.81
2023-02-27T23:06:12.580Z,102428.81
2023-02-27T23:08:14.405Z,102433.91
2023-02-27T23:10:16.195Z,102430.72
2023-02-27T23:12:17.640Z,102415.34
2023-02-27T23:14:20.581Z,102428.19
2023-02-27T23:16:22.597Z,102433.31
2023-02-27T23:18:24.508Z,102423.91
2023-02-27T23:20:26.370Z,102427.38
2023-02-27T23:22:28.085Z,102424.84
2023-02-27T23:24:29.473Z,102434.34
2023-02-27T23:26:31.084Z,102418.94
2023-02-27T23:28:34.685Z,102431.94
2023-02-27T23:30:36.198Z,102432.84
2023-02-27T23:32:37.603Z,102440.53
2023-02-27T23:34:49.043Z,102434.31
2023-02-27T23:36:51.142Z,102440.47
2023-02-27T23:38:52.568Z,102413.13
2023-02-27T23:40:54.279Z,102410.56
2023-02-27T23:42:55.683Z,102451.97
2023-02-27T23:44:57.182Z,102446.84
2023-02-27T23:46:58.784Z,102438.22
2023-02-27T23:49:01.006Z,102437.19
2023-02-27T23:51:03.840Z,102448.44
2023-02-27T23:53:07.297Z,102457.84
2023-02-27T23:55:08.751Z,102450.22
2023-02-27T23:57:10.135Z,102454.63
2023-02-27T23:59:11.892Z,102430.53
